Time;durP1;ratioP1;P1;durP2;ratioP2;P2;SDS_P1;SDS_P2;PMS_P1;PMS_P2;Temp;Humidity;BMP_temperature;BMP_pressure;BME280_temperature;BME280_humidity;BME280_pressure;Samples;Min_cycle;Max_cycle;Signal;HPM_P1;HPM_P2
2021/07/03 00:01:12;;;;;;;8.70;6.97;;;15.40;91.20;;;;;;6216247;23;20224;-86
2021/07/03 00:03:39;;;;;;;11.18;7.47;;;15.30;91.50;;;;;;6216667;23;20190;-87
2021/07/03 00:06:06;;;;;;;9.80;7.53;;;15.30;91.50;;;;;;6216086;23;20244;-87
2021/07/03 00:08:33;;;;;;;9.60;7.60;;;15.30;91.50;;;;;;6216737;23;20208;-87
2021/07/03 00:11:03;;;;;;;8.38;6.78;;;15.20;91.50;;;;;;6216458;23;20649;-86
2021/07/03 00:13:30;;;;;;;8.88;7.13;;;15.20;91.50;;;;;;6217298;23;20198;-87
2021/07/03 00:15:57;;;;;;;9.40;7.82;;;15.00;91.50;;;;;;6215548;23;20253;-86
2021/07/03 00:18:24;;;;;;;9.48;7.53;;;15.00;92.10;;;;;;6217682;23;20173;-88
2021/07/03 00:20:51;;;;;;;9.48;7.88;;;15.00;92.30;;;;;;6215933;23;20511;-86
2021/07/03 00:23:18;;;;;;;8.23;7.43;;;14.90;92.40;;;;;;6216207;23;20204;-87
2021/07/03 00:25:45;;;;;;;9.35;7.45;;;14.80;93.00;;;;;;6215810;23;20244;-87
2021/07/03 00:28:14;;;;;;;8.50;7.30;;;14.80;93.00;;;;;;6216234;23;20173;-87
2021/07/03 00:30:41;;;;;;;8.05;7.25;;;14.80;93.10;;;;;;6216132;23;20288;-86
2021/07/03 00:33:08;;;;;;;8.45;7.50;;;14.80;93.00;;;;;;6216793;23;20633;-87
2021/07/03 00:35:35;;;;;;;9.30;7.40;;;14.90;92.90;;;;;;6217442;23;20237;-86
2021/07/03 00:38:02;;;;;;;9.60;7.65;;;14.80;92.90;;;;;;6218627;23;20228;-87
2021/07/03 00:40:29;;;;;;;9.48;7.45;;;14.70;92.90;;;;;;6215381;23;20284;-86
2021/07/03 00:42:56;;;;;;;10.50;6.95;;;14.70;93.10;;;;;;6215178;23;20206;-87
2021/07/03 00:45:24;;;;;;;9.18;7.78;;;14.70;93.20;;;;;;6215696;23;20562;-87
2021/07/03 00:47:52;;;;;;;8.70;7.78;;;14.70;93.40;;;;;;6219315;23;20206;-86
2021/07/03 00:50:19;;;;;;;8.32;7.40;;;14.60;93.30;;;;;;6217083;23;20233;-87
2021/07/03 00:52:46;;;;;;;8.40;7.50;;;14.50;93.40;;;;;;6218627;23;20202;-86
2021/07/03 00:55:15;;;;;;;8.43;7.60;;;14.40;94.00;;;;;;6218444;23;20205;-86
2021/07/03 00:57:43;;;;;;;10.63;7.82;;;14.30;93.80;;;;;;6219154;23;20209;-86
2021/07/03 01:00:12;;;;;;;9.32;7.63;;;14.30;94.00;;;;;;6219007;23;20202;-87
2021/07/03 01:02:41;;;;;;;9.38;7.25;;;14.30;94.20;;;;;;6218910;23;20178;-87
2021/07/03 01:05:08;;;;;;;8.02;7.22;;;14.30;94.30;;;;;;6219025;23;20253;-87
2021/07/03 01:07:36;;;;;;;8.35;7.32;;;14.40;94.10;;;;;;6220877;23;20213;-87
2021/07/03 01:10:03;;;;;;;12.52;7.50;;;14.40;93.90;;;;;;6220037;23;20265;-86
2021/07/03 01:12:30;;;;;;;8.98;7.10;;;14.40;93.90;;;;;;6219574;23;20569;-86
2021/07/03 01:14:57;;;;;;;9.00;7.72;;;14.30;94.00;;;;;;6219441;23;20210;-86
2021/07/03 01:17:24;;;;;;;10.40;7.85;;;14.30;94.30;;;;;;6220527;23;20185;-87
2021/07/03 01:19:53;;;;;;;9.35;7.63;;;14.30;94.40;;;;;;6219376;23;20205;-86
2021/07/03 01:22:21;;;;;;;8.40;7.50;;;14.30;94.40;;;;;;6220453;23;20231;-86
2021/07/03 01:24:48;;;;;;;9.07;8.02;;;14.40;94.40;;;;;;6219743;23;20481;-86
2021/07/03 01:27:15;;;;;;;10.07;8.02;;;14.40;94.40;;;;;;6219970;23;20201;-87
2021/07/03 01:29:43;;;;;;;10.40;8.57;;;14.40;94.30;;;;;;6217046;23;20244;-87
2021/07/03 01:32:11;;;;;;;8.88;7.97;;;14.50;94.10;;;;;;6215271;23;20266;-86
2021/07/03 01:34:39;;;;;;;9.25;7.68;;;14.50;94.30;;;;;;6215425;23;20210;-87
2021/07/03 01:37:07;;;;;;;9.88;7.53;;;14.50;94.20;;;;;;6215873;23;20558;-87
2021/07/03 01:39:35;;;;;;;8.90;7.97;;;14.50;93.90;;;;;;6214392;23;20522;-86
2021/07/03 01:42:03;;;;;;;9.73;7.65;;;14.40;94.00;;;;;;6215686;23;20236;-86
2021/07/03 01:44:30;;;;;;;8.82;7.93;;;14.30;94.00;;;;;;6217915;23;20193;-86
2021/07/03 01:46:59;;;;;;;7.82;7.10;;;14.20;94.20;;;;;;6217680;23;20533;-87
2021/07/03 01:49:27;;;;;;;8.95;7.30;;;14.30;94.20;;;;;;6219169;23;20213;-86
2021/07/03 01:51:54;;;;;;;8.00;7.18;;;14.40;94.10;;;;;;6221197;23;20265;-86
2021/07/03 01:54:22;;;;;;;7.82;7.03;;;14.40;94.10;;;;;;6220693;23;20220;-86
2021/07/03 01:56:59;;;;;;;9.13;7.22;;;14.30;94.20;;;;;;6221395;23;20217;-86
2021/07/03 01:59:27;;;;;;;7.93;7.13;;;14.20;94.30;;;;;;6222468;23;20173;-87
2021/07/03 02:01:55;;;;;;;8.80;7.22;;;14.10;94.60;;;;;;6221913;23;20214;-86
2021/07/03 02:04:23;;;;;;;8.02;7.22;;;14.00;94.80;;;;;;6222532;23;20166;-86
2021/07/03 02:06:50;;;;;;;8.32;7.38;;;13.90;95.20;;;;;;6221715;23;20228;-86
2021/07/03 02:09:18;;;;;;;10.10;7.45;;;14.00;95.20;;;;;;6223846;23;20184;-87
2021/07/03 02:11:46;;;;;;;8.75;7.38;;;14.00;95.10;;;;;;6222540;23;20201;-86
2021/07/03 02:14:15;;;;;;;8.20;6.88;;;14.00;95.00;;;;;;6223769;23;20174;-87
2021/07/03 02:16:42;;;;;;;9.55;7.57;;;13.90;95.00;;;;;;6223525;23;20210;-87
2021/07/03 02:19:11;;;;;;;9.70;7.70;;;13.90;95.40;;;;;;6224538;23;20204;-87
2021/07/03 02:21:38;;;;;;;11.10;7.45;;;13.80;95.40;;;;;;6223859;23;20209;-86
2021/07/03 02:24:06;;;;;;;9.20;7.78;;;13.80;95.60;;;;;;6224030;23;20174;-87
2021/07/03 02:26:33;;;;;;;9.57;7.43;;;13.90;95.40;;;;;;6223665;23;20240;-87
2021/07/03 02:29:00;;;;;;;9.15;7.75;;;13.80;95.40;;;;;;6224970;23;20181;-86
2021/07/03 02:31:30;;;;;;;9.77;8.30;;;13.80;95.50;;;;;;6224016;23;20202;-87
2021/07/03 02:33:57;;;;;;;8.55;7.65;;;13.80;95.40;;;;;;6225771;23;20200;-87
2021/07/03 02:36:24;;;;;;;8.27;7.43;;;13.80;95.60;;;;;;6224592;23;20260;-86
2021/07/03 02:38:51;;;;;;;10.43;8.38;;;13.70;95.60;;;;;;6226864;23;20166;-87
2021/07/03 02:41:18;;;;;;;9.40;8.02;;;13.60;95.70;;;;;;6224675;23;20214;-87
2021/07/03 02:43:45;;;;;;;8.70;7.70;;;13.60;95.80;;;;;;6226819;23;20224;-87
2021/07/03 02:46:12;;;;;;;10.65;7.32;;;13.60;95.80;;;;;;6225560;23;20216;-87
2021/07/03 02:48:41;;;;;;;9.85;7.50;;;13.60;95.80;;;;;;6226748;23;20178;-86
2021/07/03 02:51:08;;;;;;;11.60;8.45;;;13.50;95.80;;;;;;6226762;23;20208;-87
2021/07/03 02:53:35;;;;;;;9.85;7.75;;;13.50;95.80;;;;;;6228196;23;20190;-86
2021/07/03 02:56:02;;;;;;;9.38;7.72;;;13.40;95.90;;;;;;6228188;23;20268;-86
2021/07/03 02:58:29;;;;;;;8.68;7.78;;;13.30;96.40;;;;;;6229089;23;20178;-87
2021/07/03 03:00:56;;;;;;;8.30;7.30;;;13.30;96.50;;;;;;6227707;23;20661;-86
2021/07/03 03:03:23;;;;;;;8.13;7.32;;;13.30;96.50;;;;;;6228078;23;20173;-86
2021/07/03 03:05:52;;;;;;;8.40;7.10;;;13.30;96.50;;;;;;6227983;23;20675;-86
2021/07/03 03:08:19;;;;;;;9.60;7.68;;;13.30;96.50;;;;;;6228114;23;20177;-87
2021/07/03 03:10:46;;;;;;;7.93;7.07;;;13.30;96.50;;;;;;6227379;23;20205;-86
2021/07/03 03:13:13;;;;;;;8.13;7.20;;;13.30;96.50;;;;;;6227631;23;20181;-87
2021/07/03 03:15:41;;;;;;;8.43;7.53;;;13.20;96.50;;;;;;6226180;23;20205;-86
2021/07/03 03:18:08;;;;;;;10.10;7.55;;;13.20;96.50;;;;;;6228995;23;20181;-86
2021/07/03 03:20:35;;;;;;;8.85;7.07;;;13.20;96.50;;;;;;6227435;23;20232;-86
2021/07/03 03:23:04;;;;;;;8.10;7.30;;;13.30;96.50;;;;;;6228543;23;20174;-87
2021/07/03 03:25:31;;;;;;;9.38;7.57;;;13.20;96.50;;;;;;6226511;23;20205;-87
2021/07/03 03:27:58;;;;;;;9.35;7.38;;;13.20;96.50;;;;;;6228663;23;20178;-86
2021/07/03 03:30:25;;;;;;;8.00;7.20;;;13.20;96.50;;;;;;6226470;23;20205;-87
2021/07/03 03:32:52;;;;;;;7.70;6.90;;;13.10;96.40;;;;;;6227932;23;20174;-87
2021/07/03 03:35:19;;;;;;;8.80;6.93;;;13.30;96.50;;;;;;6227120;23;20513;-86
2021/07/03 03:37:46;;;;;;;12.65;8.15;;;13.30;96.50;;;;;;6227906;23;20186;-86
2021/07/03 03:40:16;;;;;;;8.05;7.25;;;13.20;96.50;;;;;;6226468;23;20198;-87
2021/07/03 03:42:43;;;;;;;10.40;7.38;;;13.20;96.50;;;;;;6227501;23;20178;-86
2021/07/03 03:45:11;;;;;;;8.27;7.13;;;13.30;96.50;;;;;;6226902;23;20228;-87
2021/07/03 03:47:38;;;;;;;7.20;6.50;;;13.40;96.50;;;;;;6227951;23;20178;-87
2021/07/03 03:50:06;;;;;;;8.23;7.05;;;13.50;96.50;;;;;;6227427;23;20531;-86
2021/07/03 03:52:33;;;;;;;7.97;7.18;;;13.50;96.30;;;;;;6227324;23;20184;-87
2021/07/03 03:55:00;;;;;;;7.32;6.63;;;13.50;96.30;;;;;;6226783;23;20201;-86
2021/07/03 03:57:30;;;;;;;9.02;6.75;;;13.60;96.50;;;;;;6227252;23;20181;-87
2021/07/03 03:59:58;;;;;;;7.50;6.72;;;13.60;96.40;;;;;;6226336;23;20174;-86
2021/07/03 04:02:27;;;;;;;7.50;6.80;;;13.70;96.30;;;;;;6225913;23;20181;-87
2021/07/03 04:05:03;;;;;;;9.82;7.05;;;13.70;96.00;;;;;;6225492;23;20174;-86
2021/07/03 04:07:30;;;;;;;7.32;6.63;;;13.70;95.80;;;;;;6199902;23;20260;-87
2021/07/03 04:09:57;;;;;;;7.82;6.85;;;13.70;95.90;;;;;;6224578;23;20170;-87
2021/07/03 04:12:24;;;;;;;9.80;6.90;;;13.70;95.70;;;;;;6225466;23;20603;-87
2021/07/03 04:14:52;;;;;;;8.75;7.03;;;13.80;95.70;;;;;;6224520;23;20216;-87
2021/07/03 04:17:19;;;;;;;7.60;6.43;;;13.90;95.80;;;;;;6224204;23;20670;-87
2021/07/03 04:19:46;;;;;;;7.97;7.18;;;13.90;95.50;;;;;;6223634;23;20173;-86
2021/07/03 04:22:14;;;;;;;8.93;6.65;;;14.00;95.40;;;;;;6223714;23;20185;-86
2021/07/03 04:24:41;;;;;;;6.78;5.93;;;14.00;95.20;;;;;;6223911;23;20173;-86
2021/07/03 04:27:08;;;;;;;7.18;6.40;;;14.10;95.10;;;;;;6223738;23;20498;-87
2021/07/03 04:29:35;;;;;;;8.68;6.25;;;14.10;95.10;;;;;;6223522;23;20170;-86
2021/07/03 04:32:04;;;;;;;8.63;6.82;;;14.10;95.10;;;;;;6221408;23;20209;-86
2021/07/03 04:34:31;;;;;;;9.88;6.63;;;14.10;95.10;;;;;;6222823;23;20224;-87
2021/07/03 04:36:59;;;;;;;7.22;6.45;;;14.10;95.10;;;;;;6221595;23;20237;-87
2021/07/03 04:39:26;;;;;;;7.57;6.60;;;14.20;94.90;;;;;;6220477;23;20619;-87
2021/07/03 04:41:53;;;;;;;7.10;6.30;;;14.30;94.60;;;;;;6221147;23;20559;-86
2021/07/03 04:44:21;;;;;;;8.63;6.88;;;14.40;94.40;;;;;;6221224;23;20174;-87
2021/07/03 04:46:48;;;;;;;9.88;6.40;;;14.40;94.20;;;;;;6221195;23;20228;-87
2021/07/03 04:49:16;;;;;;;7.43;6.65;;;14.40;94.30;;;;;;6220694;23;20184;-88
2021/07/03 04:51:43;;;;;;;7.32;6.63;;;14.50;94.10;;;;;;6221282;23;20696;-86
2021/07/03 04:54:10;;;;;;;7.63;6.85;;;14.60;94.10;;;;;;6221045;23;20201;-87
2021/07/03 04:56:37;;;;;;;7.20;6.38;;;14.60;93.90;;;;;;6220788;23;20233;-87
2021/07/03 04:59:05;;;;;;;7.30;6.60;;;14.60;93.70;;;;;;6221597;23;20181;-87
2021/07/03 05:01:32;;;;;;;10.23;7.07;;;14.60;93.80;;;;;;6219548;23;20209;-86
2021/07/03 05:03:59;;;;;;;8.25;6.75;;;14.60;93.90;;;;;;6220732;23;20222;-86
2021/07/03 05:06:27;;;;;;;7.55;6.72;;;14.60;94.00;;;;;;6219351;23;20209;-87
2021/07/03 05:08:54;;;;;;;12.20;6.45;;;14.60;93.90;;;;;;6220520;23;20205;-87
2021/07/03 05:11:21;;;;;;;10.13;6.88;;;14.60;93.80;;;;;;6220121;23;20209;-87
2021/07/03 05:13:48;;;;;;;9.00;7.38;;;14.60;93.60;;;;;;6220588;23;20170;-87
2021/07/03 05:16:15;;;;;;;10.02;6.60;;;14.60;93.70;;;;;;6218454;23;20201;-88
2021/07/03 05:18:42;;;;;;;7.18;6.47;;;14.60;93.70;;;;;;6220009;23;20185;-89
2021/07/03 05:21:09;;;;;;;7.38;6.38;;;14.60;93.60;;;;;;6218616;23;20201;-88
2021/07/03 05:23:38;;;;;;;7.57;6.38;;;14.70;93.60;;;;;;6220184;23;20178;-89
2021/07/03 05:26:05;;;;;;;8.80;6.53;;;14.70;93.40;;;;;;6219857;23;20263;-89
2021/07/03 05:28:32;;;;;;;7.25;5.90;;;14.60;93.30;;;;;;6221511;23;20901;-89
2021/07/03 05:30:58;;;;;;;6.93;6.13;;;14.70;93.00;;;;;;6219697;23;20202;-88
2021/07/03 05:33:26;;;;;;;6.90;6.20;;;14.80;92.80;;;;;;6222708;23;20488;-89
2021/07/03 05:35:53;;;;;;;8.02;5.70;;;14.90;92.50;;;;;;6219987;23;20212;-89
2021/07/03 05:38:20;;;;;;;6.60;5.35;;;15.00;91.90;;;;;;6220097;23;20193;-90
2021/07/03 05:43:29;;;;;;;7.47;5.78;;;15.20;91.50;;;;;;6218705;23;20205;-90
2021/07/03 05:45:56;;;;;;;5.80;5.20;;;15.40;90.70;;;;;;6219678;23;20213;-89
2021/07/03 05:48:23;;;;;;;5.63;5.10;;;15.60;89.90;;;;;;6219715;23;20614;-89
2021/07/03 05:50:51;;;;;;;8.90;5.47;;;15.80;88.10;;;;;;6215579;23;20229;-89
2021/07/03 05:53:18;;;;;;;6.18;5.00;;;15.90;83.70;;;;;;6213053;23;20552;-90
2021/07/03 05:55:45;;;;;;;7.00;4.88;;;16.10;81.30;;;;;;6214423;23;20212;-90
2021/07/03 05:58:16;;;;;;;6.82;5.05;;;16.30;81.10;;;;;;6220176;23;20174;-91
2021/07/03 06:00:43;;;;;;;5.60;5.03;;;16.40;80.80;;;;;;6218321;23;20226;-89
2021/07/03 06:03:10;;;;;;;5.97;5.03;;;16.40;80.50;;;;;;6218509;23;20166;-89
2021/07/03 06:05:37;;;;;;;7.50;5.35;;;16.40;80.30;;;;;;6218373;23;20592;-88
2021/07/03 06:08:05;;;;;;;5.93;5.10;;;16.40;80.30;;;;;;6219533;23;20186;-89
2021/07/03 06:10:32;;;;;;;5.78;5.20;;;16.40;80.50;;;;;;6217913;23;20209;-90
2021/07/03 06:12:59;;;;;;;7.43;5.35;;;16.50;80.40;;;;;;6220803;23;20205;-89
2021/07/03 06:15:28;;;;;;;6.18;5.57;;;16.60;80.00;;;;;;6216100;23;20264;-88
2021/07/03 06:18:03;;;;;;;7.13;5.50;;;16.60;79.70;;;;;;6217669;23;20229;-89
2021/07/03 06:20:30;;;;;;;5.68;5.18;;;16.60;79.50;;;;;;6219294;23;20207;-89
2021/07/03 06:22:57;;;;;;;6.15;5.55;;;16.60;80.30;;;;;;6218607;23;20213;-89
2021/07/03 06:25:23;;;;;;;5.97;5.38;;;16.60;79.40;;;;;;6218166;23;20206;-90
2021/07/03 06:27:52;;;;;;;6.22;5.35;;;16.60;78.50;;;;;;6218755;23;20212;-88
2021/07/03 06:30:19;;;;;;;8.02;5.90;;;16.70;78.50;;;;;;6219196;23;20661;-89
2021/07/03 06:32:47;;;;;;;6.97;5.70;;;16.80;78.60;;;;;;6219383;23;20232;-89
2021/07/03 06:35:14;;;;;;;6.82;5.60;;;16.80;78.60;;;;;;6219199;23;20577;-89
2021/07/03 06:47:48;;;;;;;5.72;5.22;;;17.60;75.90;;;;;;6219093;23;20192;-90
2021/07/03 06:50:15;;;;;;;7.03;5.22;;;17.60;75.10;;;;;;6217213;23;20570;-90
2021/07/03 06:52:42;;;;;;;5.85;5.25;;;17.70;73.00;;;;;;6217385;23;20197;-91
2021/07/03 06:55:09;;;;;;;7.47;5.57;;;17.70;68.70;;;;;;6216860;23;20229;-91
2021/07/03 06:57:36;;;;;;;6.40;4.95;;;17.80;65.90;;;;;;6218898;23;20233;-90
2021/07/03 07:00:14;;;;;;;10.45;6.75;;;17.70;67.00;;;;;;6217935;23;20225;-91
2021/07/03 07:02:41;;;;;;;16.42;8.15;;;17.90;68.50;;;;;;6218414;23;20161;-90
2021/07/03 07:05:11;;;;;;;5.93;5.07;;;18.20;67.90;;;;;;6217945;23;20220;-90
2021/07/03 07:07:38;;;;;;;9.48;5.75;;;18.30;62.90;;;;;;6217850;23;20252;-90
2021/07/03 07:10:06;;;;;;;6.28;5.05;;;18.30;62.90;;;;;;6216574;23;20198;-90
2021/07/03 07:12:33;;;;;;;6.50;5.30;;;18.60;60.40;;;;;;6216159;23;20645;-91
2021/07/03 07:15:00;;;;;;;5.45;4.95;;;19.00;58.90;;;;;;6216886;23;20212;-93
2021/07/03 07:17:27;;;;;;;5.53;4.90;;;19.60;55.50;;;;;;6220864;23;20237;-91
2021/07/03 07:19:54;;;;;;;7.82;4.88;;;21.10;48.10;;;;;;6216191;23;20249;-87
2021/07/03 07:22:22;;;;;;;7.18;4.72;;;23.50;37.30;;;;;;6214603;23;20201;-89
2021/07/03 07:24:49;;;;;;;6.47;5.20;;;26.30;28.80;;;;;;6215246;23;20209;-89
2021/07/03 07:27:16;;;;;;;6.03;4.43;;;27.30;24.50;;;;;;6215545;23;20209;-89
2021/07/03 07:29:43;;;;;;;5.03;4.63;;;27.50;25.10;;;;;;6216154;23;20185;-89
2021/07/03 07:32:10;;;;;;;6.25;4.30;;;26.90;23.40;;;;;;6215742;23;20209;-89
2021/07/03 07:34:37;;;;;;;5.25;4.75;;;26.20;25.20;;;;;;6216576;23;20174;-89
2021/07/03 07:37:05;;;;;;;6.55;4.70;;;25.20;28.70;;;;;;6218623;23;20241;-87
2021/07/03 07:39:33;;;;;;;5.18;4.60;;;24.20;29.90;;;;;;6218249;23;20209;-89
2021/07/03 07:42:00;;;;;;;5.07;4.55;;;23.30;34.20;;;;;;6217038;23;20229;-89
2021/07/03 07:44:27;;;;;;;5.07;4.57;;;22.60;34.30;;;;;;6219112;23;20174;-89
2021/07/03 07:46:54;;;;;;;5.50;5.00;;;22.00;34.70;;;;;;6218997;23;20580;-92
2021/07/03 07:49:21;;;;;;;6.53;4.72;;;21.30;38.40;;;;;;6218235;23;20261;-90
2021/07/03 07:51:48;;;;;;;5.30;4.70;;;21.00;37.00;;;;;;6217777;23;20232;-90
2021/07/03 07:54:15;;;;;;;5.95;5.28;;;20.80;39.30;;;;;;6218713;23;20194;-91
2021/07/03 07:56:43;;;;;;;4.70;4.30;;;20.80;40.60;;;;;;6218287;23;20285;-90
2021/07/03 07:59:10;;;;;;;6.97;5.25;;;20.90;40.30;;;;;;6220011;23;20248;-91
2021/07/03 08:01:37;;;;;;;5.45;4.95;;;20.90;39.60;;;;;;6217190;23;20272;-90
2021/07/03 08:04:04;;;;;;;5.47;4.97;;;21.40;37.60;;;;;;6219536;23;20205;-88
2021/07/03 08:06:31;;;;;;;6.93;5.38;;;22.00;38.10;;;;;;6218673;23;20201;-91
2021/07/03 08:08:58;;;;;;;6.05;5.10;;;22.40;35.50;;;;;;6218147;23;20732;-89
2021/07/03 08:11:25;;;;;;;5.80;4.90;;;22.70;34.40;;;;;;6217554;23;20232;-89
2021/07/03 08:13:53;;;;;;;6.47;4.65;;;22.70;34.30;;;;;;6217614;23;20665;-90
2021/07/03 08:16:20;;;;;;;6.00;4.53;;;22.80;34.50;;;;;;6220071;23;20213;-89
2021/07/03 08:18:47;;;;;;;4.80;4.38;;;22.90;34.50;;;;;;6216907;23;20169;-89
2021/07/03 08:21:16;;;;;;;6.90;4.97;;;23.60;34.40;;;;;;6217536;23;20206;-90
2021/07/03 08:23:43;;;;;;;4.63;4.22;;;23.40;32.50;;;;;;6216739;23;20676;-89
2021/07/03 08:26:10;;;;;;;5.15;4.65;;;25.90;29.00;;;;;;6216292;23;20228;-89
2021/07/03 08:28:37;;;;;;;5.65;5.15;;;28.10;21.40;;;;;;6216755;23;20209;-91
2021/07/03 08:31:06;;;;;;;6.15;5.07;;;30.20;16.70;;;;;;6215367;23;20263;-88
2021/07/03 08:33:33;;;;;;;5.28;4.82;;;31.20;17.20;;;;;;6216133;23;20320;-88
2021/07/03 08:36:00;;;;;;;5.43;4.93;;;32.40;15.90;;;;;;6215128;23;20653;-88
2021/07/03 08:38:27;;;;;;;5.05;4.65;;;33.50;13.60;;;;;;6215567;23;20224;-90
2021/07/03 08:40:55;;;;;;;5.22;4.72;;;33.60;13.10;;;;;;6215010;23;20268;-89
2021/07/03 08:43:22;;;;;;;6.32;5.53;;;35.00;12.20;;;;;;6216152;23;20174;-89
2021/07/03 08:45:54;;;;;;;5.93;5.30;;;35.10;10.20;;;;;;6215830;23;20220;-90
2021/07/03 08:48:23;;;;;;;5.65;5.22;;;35.70;9.80;;;;;;6216598;23;20165;-89
2021/07/03 08:50:50;;;;;;;6.22;5.63;;;35.60;9.80;;;;;;6216194;23;20276;-89
2021/07/03 08:53:22;;;;;;;5.82;5.43;;;35.20;9.60;;;;;;6217933;23;20268;-89
2021/07/03 08:55:49;;;;;;;5.30;4.90;;;36.20;9.40;;;;;;6218008;23;20197;-89
2021/07/03 08:58:16;;;;;;;6.07;5.45;;;36.10;10.00;;;;;;6217346;23;20736;-88
2021/07/03 09:00:46;;;;;;;6.15;5.75;;;35.00;10.40;;;;;;6216222;23;20227;-89
2021/07/03 09:03:15;;;;;;;5.82;5.32;;;34.10;11.60;;;;;;6216466;23;20618;-89
2021/07/03 09:05:49;;;;;;;6.57;6.03;;;33.70;12.70;;;;;;6215903;23;20292;-89
2021/07/03 09:08:16;;;;;;;6.25;5.80;;;33.40;12.20;;;;;;6216759;23;20774;-89
2021/07/03 09:10:43;;;;;;;5.90;5.40;;;33.60;11.90;;;;;;6216302;23;20271;-89
2021/07/03 09:13:12;;;;;;;6.05;5.45;;;34.40;11.50;;;;;;6216379;23;20248;-90
2021/07/03 09:15:41;;;;;;;6.35;5.75;;;34.90;11.00;;;;;;6215341;23;20284;-90
2021/07/03 09:18:12;;;;;;;5.95;5.45;;;33.10;12.10;;;;;;6216201;23;20197;-89
2021/07/03 09:20:40;;;;;;;6.05;5.55;;;33.80;12.60;;;;;;6214887;23;20197;-89
2021/07/03 09:23:12;;;;;;;5.80;5.40;;;32.60;13.80;;;;;;6215914;23;20197;-90
2021/07/03 09:25:40;;;;;;;7.30;5.57;;;33.20;14.50;;;;;;6214722;23;20280;-89
2021/07/03 09:28:10;;;;;;;5.80;5.30;;;32.70;12.60;;;;;;6216657;23;20209;-89
2021/07/03 09:30:38;;;;;;;5.57;5.18;;;33.70;13.20;;;;;;6215368;23;20276;-90
2021/07/03 09:33:04;;;;;;;6.18;5.68;;;34.70;12.60;;;;;;6215729;23;20181;-90
2021/07/03 09:35:32;;;;;;;5.75;5.25;;;34.10;11.70;;;;;;6216939;23;20329;-89
2021/07/03 09:38:04;;;;;;;7.10;5.40;;;32.30;14.20;;;;;;6217095;23;20229;-89
2021/07/03 09:40:35;;;;;;;6.32;5.70;;;33.10;13.20;;;;;;6215790;23;20201;-91
2021/07/03 09:43:08;;;;;;;5.40;5.00;;;34.00;12.30;;;;;;6216932;23;20198;-90
2021/07/03 09:45:35;;;;;;;6.10;5.60;;;35.00;11.90;;;;;;6215090;23;20229;-90
2021/07/03 09:48:07;;;;;;;6.25;5.75;;;35.00;11.80;;;;;;6215508;23;20212;-90
2021/07/03 09:50:34;;;;;;;8.30;7.70;;;34.70;11.30;;;;;;6215698;23;20224;-90
2021/07/03 09:53:02;;;;;;;52.33;47.97;;;34.80;11.50;;;;;;6216666;23;20197;-89
2021/07/03 09:55:29;;;;;;;8.10;7.40;;;35.40;10.50;;;;;;6220090;23;20197;-90
2021/07/03 09:57:58;;;;;;;18.55;17.13;;;36.10;10.00;;;;;;6222875;23;20193;-90
2021/07/03 10:00:25;;;;;;;7.38;6.78;;;37.20;9.40;;;;;;6217600;23;20228;-89
2021/07/03 10:02:53;;;;;;;6.75;6.25;;;37.20;8.10;;;;;;6217652;23;20256;-90
2021/07/03 10:05:22;;;;;;;9.25;8.55;;;35.80;9.90;;;;;;6217990;23;20197;-89
2021/07/03 10:07:56;;;;;;;8.85;7.85;;;35.60;10.90;;;;;;6195110;23;20270;-89
2021/07/03 10:10:27;;;;;;;49.15;38.25;;;35.40;11.30;;;;;;6223481;23;20299;-89
2021/07/03 10:13:02;;;;;;;7.60;7.00;;;35.20;11.90;;;;;;6221164;23;20161;-90
2021/07/03 10:15:29;;;;;;;8.45;7.65;;;35.60;9.80;;;;;;6216346;23;20208;-89
2021/07/03 10:18:08;;;;;;;7.75;7.15;;;36.30;10.10;;;;;;6216818;23;20228;-90
2021/07/03 10:20:36;;;;;;;8.10;7.40;;;36.20;10.10;;;;;;6215954;23;20276;-89
2021/07/03 10:23:03;;;;;;;8.07;7.43;;;36.20;9.00;;;;;;6216877;23;20268;-90
2021/07/03 10:25:36;;;;;;;8.55;7.82;;;36.60;10.30;;;;;;6215549;23;20660;-90
2021/07/03 10:28:08;;;;;;;7.40;6.88;;;36.50;11.80;;;;;;6217170;23;20253;-89
2021/07/03 10:30:37;;;;;;;7.63;7.03;;;36.40;12.20;;;;;;6218279;23;20304;-89
2021/07/03 10:33:07;;;;;;;6.55;6.07;;;36.00;12.00;;;;;;6221652;23;20170;-89
2021/07/03 10:35:42;;;;;;;7.10;6.45;;;35.90;11.30;;;;;;6223865;23;20236;-89
2021/07/03 10:38:21;;;;;;;7.15;6.65;;;36.10;11.60;;;;;;6219370;23;20237;-89
2021/07/03 10:40:48;;;;;;;7.07;6.47;;;35.20;12.50;;;;;;6215352;23;20205;-89
2021/07/03 10:43:17;;;;;;;9.38;8.43;;;33.80;11.80;;;;;;6215754;23;20229;-89
2021/07/03 10:45:46;;;;;;;25.23;23.30;;;33.60;14.40;;;;;;6214654;23;20259;-89
2021/07/03 10:48:22;;;;;;;9.15;6.88;;;33.10;12.80;;;;;;6214681;23;20174;-90
2021/07/03 10:50:50;;;;;;;7.80;7.10;;;32.10;14.10;;;;;;6214514;23;20229;-89
2021/07/03 10:53:23;;;;;;;7.63;7.00;;;31.80;15.90;;;;;;6214669;23;20694;-89
2021/07/03 10:55:51;;;;;;;6.20;5.70;;;33.10;14.10;;;;;;6214374;23;20202;-88
2021/07/03 10:58:21;;;;;;;7.53;6.82;;;33.00;16.70;;;;;;6215560;23;20275;-89
2021/07/03 11:00:51;;;;;;;6.82;6.22;;;33.00;13.70;;;;;;6214364;23;20596;-89
2021/07/03 11:03:20;;;;;;;6.80;6.20;;;33.10;14.70;;;;;;6215280;23;20184;-89
2021/07/03 11:05:48;;;;;;;7.55;6.95;;;32.90;14.10;;;;;;6214687;23;20263;-89
2021/07/03 11:08:16;;;;;;;6.57;5.97;;;32.00;14.90;;;;;;6215139;23;20185;-88
2021/07/03 11:10:43;;;;;;;7.05;6.45;;;31.10;17.10;;;;;;6214312;23;20202;-88
2021/07/03 11:13:21;;;;;;;6.80;6.20;;;30.20;17.80;;;;;;6216871;23;20252;-89
2021/07/03 11:15:48;;;;;;;7.10;6.40;;;29.70;16.50;;;;;;6215678;23;20341;-88
2021/07/03 11:18:16;;;;;;;6.53;5.97;;;29.10;17.20;;;;;;6218191;23;20280;-89
2021/07/03 11:20:43;;;;;;;6.72;5.50;;;28.50;22.70;;;;;;6216145;23;20225;-89
2021/07/03 11:23:12;;;;;;;6.80;6.10;;;28.80;22.90;;;;;;6216694;23;20257;-89
2021/07/03 11:25:42;;;;;;;6.82;6.22;;;28.50;19.70;;;;;;6217135;23;20533;-89
2021/07/03 11:28:11;;;;;;;7.22;5.85;;;28.20;20.90;;;;;;6217893;23;20244;-90
2021/07/03 11:30:41;;;;;;;7.40;6.65;;;27.90;21.20;;;;;;6217368;23;20272;-89
2021/07/03 11:33:09;;;;;;;6.68;6.07;;;27.70;23.70;;;;;;6218371;23;20197;-91
2021/07/03 11:35:41;;;;;;;6.50;5.88;;;27.80;21.40;;;;;;6217274;23;20569;-90
2021/07/03 11:38:08;;;;;;;7.72;6.30;;;27.80;21.10;;;;;;6217378;23;20185;-90
2021/07/03 11:40:35;;;;;;;7.80;6.30;;;27.60;21.20;;;;;;6190040;23;20235;-87
2021/07/03 11:43:05;;;;;;;7.60;6.82;;;27.30;24.90;;;;;;6216366;23;20257;-87
2021/07/03 11:45:36;;;;;;;6.05;5.53;;;27.00;22.50;;;;;;6215958;23;20206;-89
2021/07/03 11:48:10;;;;;;;5.95;5.35;;;26.50;26.00;;;;;;6216920;23;20250;-88
2021/07/03 11:50:40;;;;;;;6.30;5.57;;;26.50;20.70;;;;;;6216228;23;20256;-87
2021/07/03 11:53:09;;;;;;;6.22;5.60;;;26.60;21.70;;;;;;6216905;23;20280;-87
2021/07/03 11:55:38;;;;;;;5.78;5.15;;;26.60;21.20;;;;;;6216142;23;20666;-88
2021/07/03 11:58:06;;;;;;;5.95;5.40;;;26.50;23.00;;;;;;6216724;23;20277;-88
2021/07/03 12:00:34;;;;;;;5.60;5.10;;;26.60;22.90;;;;;;6216239;23;20284;-85
2021/07/03 12:03:03;;;;;;;7.22;5.82;;;26.70;21.60;;;;;;6217101;23;20250;-90
2021/07/03 12:05:33;;;;;;;6.45;5.13;;;25.50;25.50;;;;;;6217112;23;20219;-87
2021/07/03 12:08:04;;;;;;;6.75;5.88;;;25.90;26.00;;;;;;6217826;23;20548;-87
2021/07/03 12:10:40;;;;;;;7.25;5.43;;;26.10;25.40;;;;;;6216197;23;20212;-87
2021/07/03 12:13:09;;;;;;;5.93;5.30;;;26.20;25.20;;;;;;6217377;23;20212;-88
2021/07/03 12:15:36;;;;;;;7.55;5.70;;;26.10;22.10;;;;;;6217471;23;20288;-89
2021/07/03 12:18:03;;;;;;;6.07;5.47;;;25.90;23.60;;;;;;6218791;23;20561;-88
2021/07/03 12:20:33;;;;;;;5.55;5.05;;;26.00;22.60;;;;;;6218426;23;20209;-88
2021/07/03 12:23:03;;;;;;;7.63;5.00;;;26.00;25.80;;;;;;6218462;23;20680;-88
2021/07/03 12:25:31;;;;;;;6.75;5.40;;;25.70;24.50;;;;;;6216012;23;20885;-90
2021/07/03 12:28:00;;;;;;;5.50;5.00;;;25.60;24.00;;;;;;6217379;23;20201;-90
2021/07/03 12:30:30;;;;;;;5.38;4.88;;;25.60;26.00;;;;;;6215770;23;20204;-89
2021/07/03 12:33:09;;;;;;;5.00;4.50;;;25.70;24.90;;;;;;6216990;23;20174;-89
2021/07/03 12:35:40;;;;;;;6.22;4.97;;;25.90;26.70;;;;;;6216316;23;20221;-89
2021/07/03 12:38:08;;;;;;;5.07;4.57;;;25.90;25.00;;;;;;6216735;23;20190;-89
2021/07/03 12:40:38;;;;;;;8.38;4.93;;;25.80;26.10;;;;;;6216067;23;20237;-89
2021/07/03 12:43:05;;;;;;;5.55;4.90;;;26.00;25.10;;;;;;6217021;23;20557;-87
2021/07/03 12:45:32;;;;;;;5.13;4.72;;;26.00;25.00;;;;;;6189629;23;20725;-88
2021/07/03 12:48:11;;;;;;;5.13;4.68;;;26.10;24.60;;;;;;6216767;23;20556;-89
2021/07/03 12:50:40;;;;;;;5.47;4.97;;;25.90;25.00;;;;;;6215815;23;20260;-89
2021/07/03 12:53:09;;;;;;;6.05;5.18;;;25.80;24.00;;;;;;6215734;23;20301;-89
2021/07/03 12:55:41;;;;;;;5.95;5.03;;;25.70;24.90;;;;;;6215892;23;20198;-89
2021/07/03 12:58:24;;;;;;;5.82;5.22;;;25.60;24.50;;;;;;6215973;23;20186;-90
2021/07/03 13:00:51;;;;;;;4.85;4.45;;;25.70;24.70;;;;;;6213136;23;20224;-89
2021/07/03 13:03:20;;;;;;;5.60;5.07;;;25.70;24.30;;;;;;6216053;23;20213;-91